createdAt,value
2023-04-07T00:00:35.914Z,101238.78
2023-04-07T00:03:07.252Z,101234.59
2023-04-07T00:05:35.692Z,101241.53
2023-04-07T00:08:03.818Z,101235.50
2023-04-07T00:10:33.458Z,101240.47
2023-04-07T00:13:02.127Z,101242.31
2023-04-07T00:15:30.348Z,101245.84
2023-04-07T00:17:58.576Z,101247.53
2023-04-07T00:20:27.006Z,101249.31
2023-04-07T00:22:55.048Z,101246.63
2023-04-07T00:25:23.097Z,101246.63
2023-04-07T00:27:52.544Z,101255.41
2023-04-07T00:30:20.840Z,101240.56
2023-04-07T00:32:49.286Z,101249.50
2023-04-07T00:35:17.529Z,101254.56
2023-04-07T00:37:45.619Z,101241.38
2023-04-07T00:40:13.931Z,101249.25
2023-04-07T00:42:42.026Z,101246.69
2023-04-07T00:45:12.783Z,101251.88
2023-04-07T00:47:41.172Z,101243.78
2023-04-07T00:50:10.280Z,101256.19
2023-04-07T00:52:38.663Z,101254.47
2023-04-07T00:55:07.607Z,101249.41
2023-04-07T00:57:35.691Z,101245.72
2023-04-07T01:00:05.315Z,101245.84
2023-04-07T01:02:42.779Z,101249.41
2023-04-07T01:05:17.623Z,101242.53
2023-04-07T01:07:54.056Z,101244.28
2023-04-07T01:10:29.053Z,101244.09
2023-04-07T01:13:04.009Z,101250.38
2023-04-07T01:15:33.451Z,101248.59
2023-04-07T01:18:14.861Z,101252.28
2023-04-07T01:20:47.238Z,101248.84
2023-04-07T01:23:27.950Z,101245.97
2023-04-07T01:26:05.618Z,101246.97
2023-04-07T01:29:05.531Z,101243.66
2023-04-07T01:31:38.380Z,101251.66
2023-04-07T01:34:10.833Z,101251.44
2023-04-07T01:36:39.265Z,101249.75
2023-04-07T01:39:08.692Z,101245.41
2023-04-07T01:41:37.745Z,101247.06
2023-04-07T01:44:07.765Z,101251.28
2023-04-07T01:46:37.277Z,101249.09
2023-04-07T01:49:06.716Z,101257.66
2023-04-07T01:51:36.020Z,101257.59
2023-04-07T01:54:06.164Z,101261.19
2023-04-07T01:56:34.725Z,101258.38
2023-04-07T01:59:02.745Z,101260.13
2023-04-07T02:01:31.043Z,101257.38
2023-04-07T02:04:07.911Z,101260.78
2023-04-07T02:06:43.172Z,101266.78
2023-04-07T02:09:14.464Z,101266.03
2023-04-07T02:11:45.086Z,101265.59
2023-04-07T02:14:14.493Z,101268.34
2023-04-07T02:16:45.213Z,101272.50
2023-04-07T02:19:16.690Z,101265.78
2023-04-07T02:21:46.941Z,101269.34
2023-04-07T02:24:14.967Z,101274.44
2023-04-07T02:26:44.204Z,101275.28
2023-04-07T02:29:12.249Z,101276.16
2023-04-07T02:31:40.485Z,101282.16
2023-04-07T02:34:08.844Z,101283.84
2023-04-07T02:36:38.461Z,101275.13
2023-04-07T02:39:06.631Z,101280.31
2023-04-07T02:41:34.744Z,101271.75
2023-04-07T02:44:02.892Z,101272.81
2023-04-07T02:46:31.140Z,101277.22
2023-04-07T02:48:59.378Z,101278.88
2023-04-07T02:51:27.721Z,101275.22
2023-04-07T02:53:57.303Z,101278.28
2023-04-07T02:56:25.500Z,101281.00
2023-04-07T02:58:53.590Z,101290.63
2023-04-07T03:01:21.769Z,101288.78
2023-04-07T03:03:50.139Z,101290.41
2023-04-07T03:06:18.317Z,101297.28
2023-04-07T03:08:46.593Z,101295.72
2023-04-07T03:11:16.337Z,101298.41
2023-04-07T03:13:44.365Z,101301.88
2023-04-07T03:16:12.380Z,101298.25
2023-04-07T03:18:40.416Z,101290.50
2023-04-07T03:21:08.996Z,101295.16
2023-04-07T03:23:37.092Z,101287.38
2023-04-07T03:26:05.360Z,101294.25
2023-04-07T03:28:34.809Z,101296.72
2023-04-07T03:31:02.967Z,101294.00
2023-04-07T03:33:31.104Z,101296.78
2023-04-07T03:35:59.253Z,101297.91
2023-04-07T03:38:27.596Z,101295.16
2023-04-07T03:40:55.709Z,101292.81
2023-04-07T03:43:23.783Z,101289.25
2023-04-07T03:45:54.393Z,101292.59
2023-04-07T03:48:22.535Z,101293.44
2023-04-07T03:50:50.570Z,101291.63
2023-04-07T03:53:19.514Z,101295.06
2023-04-07T03:55:47.678Z,101296.63
2023-04-07T03:58:15.980Z,101294.88
2023-04-07T04:00:44.232Z,101300.97
2023-04-07T04:03:13.763Z,101300.25
2023-04-07T04:05:41.924Z,101306.34
2023-04-07T04:08:09.995Z,101301.44
2023-04-07T04:10:38.112Z,101300.53
2023-04-07T04:13:09.305Z,101309.09
2023-04-07T04:15:37.421Z,101311.66
2023-04-07T04:18:05.718Z,101310.19
2023-04-07T04:20:35.199Z,101313.41
2023-04-07T04:23:03.269Z,101313.28
2023-04-07T04:25:34.141Z,101317.56
2023-04-07T04:28:02.199Z,101308.72
2023-04-07T04:30:30.264Z,101313.47
2023-04-07T04:32:58.575Z,101319.63
2023-04-07T04:35:27.304Z,101314.34
2023-04-07T04:37:58.966Z,101319.34
2023-04-07T04:40:27.115Z,101325.38
2023-04-07T04:42:55.184Z,101320.91
2023-04-07T04:45:23.346Z,101318.16
2023-04-07T04:47:51.663Z,101329.56
2023-04-07T04:50:19.959Z,101326.94
2023-04-07T04:52:48.028Z,101328.63
2023-04-07T04:55:17.674Z,101330.31
2023-04-07T04:57:45.850Z,101337.03
2023-04-07T05:00:14.724Z,101336.91
2023-04-07T05:02:43.552Z,101337.69
2023-04-07T05:05:11.954Z,101341.84
2023-04-07T05:07:40.552Z,101342.00
2023-04-07T05:10:09.778Z,101341.78
2023-04-07T05:12:39.737Z,101342.00
2023-04-07T05:15:09.075Z,101345.38
2023-04-07T05:17:37.243Z,101347.16
2023-04-07T05:20:10.421Z,101346.94
2023-04-07T05:22:38.724Z,101348.66
2023-04-07T05:25:07.947Z,101347.66
2023-04-07T05:27:36.010Z,101347.81
2023-04-07T05:30:06.311Z,101347.25
2023-04-07T05:32:34.414Z,101348.88
2023-04-07T05:35:02.498Z,101348.00
2023-04-07T05:37:30.544Z,101354.88
2023-04-07T05:39:58.630Z,101359.19
2023-04-07T05:42:26.849Z,101360.91
2023-04-07T05:44:54.998Z,101358.47
2023-04-07T05:47:24.499Z,101359.53
2023-04-07T05:49:52.633Z,101364.91
2023-04-07T05:52:20.847Z,101367.44
2023-04-07T05:54:49.364Z,101368.56
2023-04-07T05:57:17.386Z,101371.91
2023-04-07T05:59:45.929Z,101366.63
2023-04-07T06:02:15.244Z,101370.97
2023-04-07T06:04:44.776Z,101372.53
2023-04-07T06:07:12.917Z,101375.13
2023-04-07T06:09:42.673Z,101381.03
2023-04-07T06:12:12.360Z,101380.00
2023-04-07T06:14:40.629Z,101379.00
2023-04-07T06:17:08.842Z,101381.78
2023-04-07T06:19:37.081Z,101381.78
2023-04-07T06:22:06.594Z,101377.44
2023-04-07T06:24:34.641Z,101386.13
2023-04-07T06:27:04.827Z,101387.84
2023-04-07T06:29:34.245Z,101381.63
2023-04-07T06:32:02.721Z,101391.84
2023-04-07T06:34:30.738Z,101396.34
2023-04-07T06:36:59.451Z,101392.25
2023-04-07T06:39:29.747Z,101400.88
2023-04-07T06:41:57.871Z,101396.34
2023-04-07T06:44:28.439Z,101401.38
2023-04-07T06:46:56.605Z,101401.38
2023-04-07T06:49:24.673Z,101406.56
2023-04-07T06:51:52.777Z,101403.88
2023-04-07T06:54:21.565Z,101408.19
2023-04-07T06:56:52.790Z,101410.53
2023-04-07T06:59:22.184Z,101418.25
2023-04-07T07:01:50.468Z,101411.38
2023-04-07T07:04:18.646Z,101418.19
2023-04-07T07:06:46.781Z,101421.78
2023-04-07T07:09:15.035Z,101421.53
2023-04-07T07:11:43.092Z,101421.38
2023-04-07T07:14:12.519Z,101419.41
2023-04-07T07:16:41.359Z,101429.63
2023-04-07T07:19:09.637Z,101425.00
2023-04-07T07:21:37.859Z,101433.81
2023-04-07T07:24:06.242Z,101440.72
2023-04-07T07:26:34.270Z,101441.22
2023-04-07T07:29:02.325Z,101437.63
2023-04-07T07:31:32.234Z,101442.66
2023-04-07T07:34:00.930Z,101441.59
2023-04-07T07:36:28.952Z,101438.97
2023-04-07T07:38:57.007Z,101445.34
2023-04-07T07:41:25.068Z,101446.19
2023-04-07T07:43:53.115Z,101443.44
2023-04-07T07:46:21.233Z,101449.59
2023-04-07T07:48:50.843Z,101453.84
2023-04-07T07:51:19.412Z,101451.66
2023-04-07T07:53:47.617Z,101452.19
2023-04-07T07:56:15.798Z,101457.09
2023-04-07T07:58:43.868Z,101456.03
2023-04-07T08:01:11.929Z,101456.69
2023-04-07T08:03:40.193Z,101460.19
2023-04-07T08:06:09.886Z,101465.41
2023-04-07T08:08:38.037Z,101463.28
2023-04-07T08:11:08.947Z,101466.41
2023-04-07T08:13:39.978Z,101474.75
2023-04-07T08:16:08.453Z,101467.44
2023-04-07T08:18:36.494Z,101469.94
2023-04-07T08:21:05.730Z,101478.81
2023-04-07T08:23:35.350Z,101485.72
2023-04-07T08:26:03.412Z,101486.69
2023-04-07T08:28:31.451Z,101488.00
2023-04-07T08:30:59.490Z,101492.09
2023-04-07T08:33:27.688Z,101491.19
2023-04-07T08:35:55.660Z,101490.34
2023-04-07T08:38:23.972Z,101492.72
2023-04-07T08:40:59.894Z,101497.81
2023-04-07T08:43:28.249Z,101506.50
2023-04-07T08:45:58.558Z,101499.19
2023-04-07T08:48:30.081Z,101509.75
2023-04-07T08:50:59.413Z,101511.09
2023-04-07T08:53:33.100Z,101511.34
2023-04-07T08:56:03.121Z,101512.97
2023-04-07T08:58:31.627Z,101515.72
2023-04-07T09:01:00.481Z,101518.47
2023-04-07T09:03:29.034Z,101522.75
2023-04-07T09:05:58.210Z,101518.81
2023-04-07T09:08:26.242Z,101530.31
2023-04-07T09:10:54.926Z,101519.13
2023-04-07T09:13:25.664Z,101523.09
2023-04-07T09:15:53.781Z,101527.41
2023-04-07T09:18:21.870Z,101527.19
2023-04-07T09:20:57.862Z,101528.00
2023-04-07T09:23:31.180Z,101533.59
2023-04-07T09:26:01.500Z,101530.84
2023-04-07T09:28:47.426Z,101534.88
2023-04-07T09:31:15.512Z,101541.66
2023-04-07T09:33:46.373Z,101537.97
2023-04-07T09:36:14.762Z,101532.41
2023-04-07T09:38:44.951Z,101535.84
2023-04-07T09:41:14.391Z,101535.91
2023-04-07T09:43:44.867Z,101541.84
2023-04-07T09:46:16.017Z,101534.59
2023-04-07T09:48:47.277Z,101539.94
2023-04-07T09:51:17.873Z,101542.88
2023-04-07T09:53:51.814Z,101542.31
2023-04-07T09:56:22.435Z,101540.22
2023-04-07T09:58:52.035Z,101549.84
2023-04-07T10:01:22.916Z,101542.03
2023-04-07T10:03:52.960Z,101550.91
2023-04-07T10:06:21.897Z,101544.25
2023-04-07T10:08:50.116Z,101544.69
2023-04-07T10:11:18.255Z,101546.47
2023-04-07T10:13:49.957Z,101550.44
2023-04-07T10:16:18.426Z,101548.59
2023-04-07T10:18:47.954Z,101558.59
2023-04-07T10:21:18.257Z,101551.22
2023-04-07T10:23:53.417Z,101559.06
2023-04-07T10:26:26.436Z,101557.13
2023-04-07T10:29:01.762Z,101561.06
2023-04-07T10:31:30.345Z,101562.19
2023-04-07T10:33:59.800Z,101555.97
2023-04-07T10:36:29.209Z,101555.34
2023-04-07T10:39:21.466Z,101571.16
2023-04-07T10:41:49.509Z,101567.63
2023-04-07T10:44:49.871Z,101567.84
2023-04-07T10:47:18.520Z,101586.22
2023-04-07T10:50:20.029Z,101571.94
2023-04-07T10:52:49.171Z,101574.50
2023-04-07T10:55:37.764Z,101576.63
2023-04-07T10:58:29.997Z,101578.03
2023-04-07T11:01:21.012Z,101579.38
2023-04-07T11:04:01.310Z,101585.31
2023-04-07T11:06:31.653Z,101582.69
2023-04-07T11:08:59.764Z,101585.09
2023-04-07T11:11:39.564Z,101579.84
2023-04-07T11:14:07.910Z,101586.19
2023-04-07T11:16:41.073Z,101582.31
2023-04-07T11:19:09.439Z,101590.97
2023-04-07T11:21:38.830Z,101596.66
2023-04-07T11:24:07.275Z,101597.91
2023-04-07T11:26:42.554Z,101597.97
2023-04-07T11:29:12.200Z,101601.91
2023-04-07T11:31:40.493Z,101606.50
2023-04-07T11:34:09.095Z,101610.00
2023-04-07T11:36:40.097Z,101610.50
2023-04-07T11:39:19.902Z,101607.63
2023-04-07T11:41:49.701Z,101602.38
2023-04-07T11:44:17.844Z,101611.09
2023-04-07T11:46:55.248Z,101617.78
2023-04-07T11:49:25.032Z,101615.06
2023-04-07T11:52:01.851Z,101621.91
2023-04-07T11:54:41.122Z,101618.06
2023-04-07T11:57:12.118Z,101615.28
2023-04-07T11:59:42.773Z,101621.16
2023-04-07T12:02:11.048Z,101620.44
2023-04-07T12:04:58.097Z,101630.34
2023-04-07T12:07:28.380Z,101635.44
2023-04-07T12:09:57.422Z,101638.06
2023-04-07T12:12:29.931Z,101639.34
2023-04-07T12:14:58.172Z,101637.25
2023-04-07T12:17:28.256Z,101634.72
2023-04-07T12:19:56.619Z,101640.22
2023-04-07T12:22:24.689Z,101647.50
2023-04-07T12:24:54.113Z,101640.53
2023-04-07T12:27:32.496Z,101642.38
2023-04-07T12:30:09.850Z,101646.09
2023-04-07T12:32:38.551Z,101652.22
2023-04-07T12:35:07.238Z,101650.13
2023-04-07T12:37:35.394Z,101657.94
2023-04-07T12:40:05.306Z,101655.59
2023-04-07T12:42:33.431Z,101650.69
2023-04-07T12:45:04.281Z,101659.00
2023-04-07T12:47:32.497Z,101664.88
2023-04-07T12:50:00.872Z,101659.28
2023-04-07T12:52:28.943Z,101660.19
2023-04-07T12:54:57.182Z,101661.63
2023-04-07T12:57:27.544Z,101670.28
2023-04-07T12:59:55.699Z,101668.44
2023-04-07T13:04:52.650Z,101676.63
2023-04-07T13:07:22.225Z,101673.09
2023-04-07T13:09:50.424Z,101670.22
2023-04-07T13:12:18.469Z,101669.75
2023-04-07T13:14:59.219Z,101681.34
2023-04-07T13:17:29.157Z,101679.34
2023-04-07T13:19:57.415Z,101682.22
2023-04-07T13:22:25.610Z,101682.88
2023-04-07T13:24:53.708Z,101683.81
2023-04-07T13:27:21.695Z,101678.56
2023-04-07T13:29:51.128Z,101686.53
2023-04-07T13:32:19.242Z,101685.22
2023-04-07T13:34:47.295Z,101691.84
2023-04-07T13:37:16.614Z,101688.59
2023-04-07T13:39:44.670Z,101685.03
2023-04-07T13:42:19.174Z,101689.75
2023-04-07T13:44:48.268Z,101685.06
2023-04-07T13:47:19.714Z,101690.03
2023-04-07T13:49:48.660Z,101691.31
2023-04-07T13:52:16.987Z,101687.16
2023-04-07T13:54:46.469Z,101682.59
2023-04-07T13:57:20.651Z,101687.84
2023-04-07T13:59:49.806Z,101686.59
2023-04-07T14:02:19.725Z,101689.22
2023-04-07T14:04:48.218Z,101694.56
2023-04-07T14:07:16.380Z,101684.97
2023-04-07T14:09:44.564Z,101692.56
2023-04-07T14:12:12.865Z,101686.38
2023-04-07T14:14:40.964Z,101688.91
2023-04-07T14:17:09.072Z,101689.84
2023-04-07T14:19:38.570Z,101684.53
2023-04-07T14:22:06.697Z,101686.84
2023-04-07T14:24:34.827Z,101690.25
2023-04-07T14:27:03.994Z,101691.75
2023-04-07T14:29:32.177Z,101689.69
2023-04-07T14:32:00.245Z,101693.88
2023-04-07T14:34:28.295Z,101690.94
2023-04-07T14:36:58.908Z,101693.50
2023-04-07T14:39:27.152Z,101692.19
2023-04-07T14:41:55.446Z,101694.91
2023-04-07T14:44:23.531Z,101695.19
2023-04-07T14:46:54.074Z,101692.50
2023-04-07T14:49:22.386Z,101697.88
2023-04-07T14:51:50.425Z,101692.44
2023-04-07T14:54:19.925Z,101694.59
2023-04-07T14:56:47.968Z,101709.28
2023-04-07T14:59:16.026Z,101697.66
2023-04-07T15:01:44.055Z,101700.91
2023-04-07T15:04:12.213Z,101706.00
2023-04-07T15:06:42.584Z,101706.16
2023-04-07T15:09:11.009Z,101710.16
2023-04-07T15:11:40.588Z,101705.72
2023-04-07T15:14:08.664Z,101703.41
2023-04-07T15:16:37.021Z,101711.91
2023-04-07T15:19:05.341Z,101713.78
2023-04-07T15:21:33.434Z,101712.78
2023-04-07T15:24:01.458Z,101712.88
2023-04-07T15:26:29.519Z,101716.44
2023-04-07T15:29:01.250Z,101714.09
2023-04-07T15:31:30.051Z,101717.28
2023-04-07T15:33:58.201Z,101718.94
2023-04-07T15:36:27.390Z,101719.91
2023-04-07T15:38:55.476Z,101724.22
2023-04-07T15:41:23.580Z,101726.34
2023-04-07T15:43:52.587Z,101723.84
2023-04-07T15:46:22.004Z,101731.34
2023-04-07T15:48:50.048Z,101725.09
2023-04-07T15:51:18.121Z,101722.13
2023-04-07T15:53:46.336Z,101724.91
2023-04-07T15:56:14.491Z,101725.78
2023-04-07T15:58:42.861Z,101725.06
2023-04-07T16:01:11.173Z,101729.47
2023-04-07T16:03:40.971Z,101729.34
2023-04-07T16:06:09.138Z,101728.75
2023-04-07T16:08:37.497Z,101741.47
2023-04-07T16:11:05.808Z,101735.34
2023-04-07T16:13:33.880Z,101741.13
2023-04-07T16:16:02.072Z,101738.19
2023-04-07T16:18:30.503Z,101742.19
2023-04-07T16:21:00.922Z,101744.44
2023-04-07T16:23:30.594Z,101748.94
2023-04-07T16:25:58.894Z,101754.47
2023-04-07T16:28:29.779Z,101754.94
2023-04-07T16:30:57.883Z,101754.31
2023-04-07T16:33:28.167Z,101766.38
2023-04-07T16:35:56.281Z,101757.84
2023-04-07T16:38:27.411Z,101760.19
2023-04-07T16:41:03.927Z,101768.94
2023-04-07T16:43:32.893Z,101760.41
2023-04-07T16:46:01.138Z,101762.81
2023-04-07T16:48:30.535Z,101762.88
2023-04-07T16:50:58.575Z,101768.22
2023-04-07T16:53:28.022Z,101776.03
2023-04-07T16:55:56.469Z,101769.13
2023-04-07T16:58:24.558Z,101775.44
2023-04-07T17:00:52.632Z,101783.00
2023-04-07T17:03:21.083Z,101786.91
2023-04-07T17:05:49.508Z,101786.03
2023-04-07T17:08:21.160Z,101781.56
2023-04-07T17:10:50.686Z,101785.97
2023-04-07T17:13:18.748Z,101791.22
2023-04-07T17:15:46.899Z,101793.66
2023-04-07T17:18:15.123Z,101796.59
2023-04-07T17:20:43.336Z,101794.91
2023-04-07T17:23:11.665Z,101801.84
2023-04-07T17:25:39.778Z,101809.38
2023-04-07T17:28:09.295Z,101811.00
2023-04-07T17:30:37.582Z,101815.28
2023-04-07T17:33:08.211Z,101814.06
2023-04-07T17:35:36.646Z,101817.19
2023-04-07T17:38:04.702Z,101822.28
2023-04-07T17:40:35.840Z,101828.41
2023-04-07T17:43:03.990Z,101839.75
2023-04-07T17:45:33.620Z,101832.63
2023-04-07T17:48:03.684Z,101837.13
2023-04-07T17:50:32.130Z,101846.38
2023-04-07T17:53:00.934Z,101840.63
2023-04-07T17:55:29.120Z,101847.66
2023-04-07T17:58:00.790Z,101852.16
2023-04-07T18:00:29.352Z,101851.31
2023-04-07T18:02:58.932Z,101851.25
2023-04-07T18:05:27.632Z,101851.25
2023-04-07T18:07:56.378Z,101855.47
2023-04-07T18:10:28.047Z,101856.25
2023-04-07T18:12:56.204Z,101860.84
2023-04-07T18:15:24.220Z,101862.53
2023-04-07T18:17:54.683Z,101857.56
2023-04-07T18:20:24.488Z,101865.75
2023-04-07T18:22:53.635Z,101870.00
2023-04-07T18:25:21.792Z,101870.81
2023-04-07T18:27:49.835Z,101876.84
2023-04-07T18:30:17.973Z,101873.44
2023-04-07T18:32:46.440Z,101878.63
2023-04-07T18:35:14.440Z,101877.72
2023-04-07T18:37:44.415Z,101887.41
2023-04-07T18:40:13.620Z,101884.78
2023-04-07T18:42:44.815Z,101884.78
2023-04-07T18:45:12.941Z,101890.94
2023-04-07T18:47:41.073Z,101892.72
2023-04-07T18:50:09.969Z,101891.88
2023-04-07T18:52:40.424Z,101895.34
2023-04-07T18:55:11.364Z,101905.84
2023-04-07T18:57:40.287Z,101905.13
2023-04-07T19:00:11.967Z,101912.97
2023-04-07T19:02:44.317Z,101913.06
2023-04-07T19:05:12.767Z,101917.31
2023-04-07T19:07:40.852Z,101916.66
2023-04-07T19:10:10.979Z,101919.16
2023-04-07T19:12:40.060Z,101921.91
2023-04-07T19:15:09.392Z,101926.31
2023-04-07T19:17:37.849Z,101941.59
2023-04-07T19:20:06.904Z,101939.13
2023-04-07T19:22:34.987Z,101942.56
2023-04-07T19:25:03.256Z,101945.94
2023-04-07T19:27:33.347Z,101945.03
2023-04-07T19:30:01.421Z,101942.41
2023-04-07T19:32:29.537Z,101948.56
2023-04-07T19:34:57.981Z,101949.69
2023-04-07T19:37:26.138Z,101952.31
2023-04-07T19:40:02.120Z,101953.06
2023-04-07T19:42:32.854Z,101956.59
2023-04-07T19:45:02.433Z,101957.56
2023-04-07T19:47:30.606Z,101948.91
2023-04-07T19:49:58.785Z,101959.22
2023-04-07T19:52:26.829Z,101963.78
2023-04-07T19:54:55.020Z,101965.50
2023-04-07T19:57:23.102Z,101960.31
2023-04-07T19:59:52.612Z,101959.63
2023-04-07T20:02:23.950Z,101962.50
2023-04-07T20:04:52.346Z,101970.69
2023-04-07T20:07:20.549Z,101971.56
2023-04-07T20:09:50.654Z,101973.44
2023-04-07T20:12:18.863Z,101969.44
2023-04-07T20:14:47.011Z,101975.50
2023-04-07T20:17:18.349Z,101981.69
2023-04-07T20:19:47.200Z,101975.72
2023-04-07T20:22:15.579Z,101980.97
2023-04-07T20:24:43.764Z,101977.63
2023-04-07T20:27:11.848Z,101981.19
2023-04-07T20:29:39.971Z,101984.91
2023-04-07T20:32:08.078Z,101990.16
2023-04-07T20:34:37.606Z,101993.66
2023-04-07T20:37:05.992Z,101992.97
2023-04-07T20:39:34.198Z,101991.19
2023-04-07T20:42:03.112Z,101998.53
2023-04-07T20:44:31.471Z,102004.81
2023-04-07T20:46:59.543Z,102006.56
2023-04-07T20:49:28.579Z,102006.56
2023-04-07T20:51:58.048Z,102006.72
2023-04-07T20:54:26.713Z,102008.63
2023-04-07T20:56:55.084Z,102012.16
2023-04-07T20:59:23.271Z,102007.44
2023-04-07T21:01:51.876Z,102009.44
2023-04-07T21:04:20.394Z,102010.28
2023-04-07T21:06:48.599Z,102013.06
2023-04-07T21:09:17.995Z,102013.38
2023-04-07T21:11:46.136Z,102013.44
2023-04-07T21:14:14.167Z,102011.84
2023-04-07T21:16:42.198Z,102016.44
2023-04-07T21:19:11.195Z,102013.84
2023-04-07T21:21:42.073Z,102024.59
2023-04-07T21:24:10.123Z,102019.47
2023-04-07T21:26:39.538Z,102019.63
2023-04-07T21:29:07.644Z,102016.19
2023-04-07T21:31:35.900Z,102019.88
2023-04-07T21:34:04.314Z,102024.38
2023-04-07T21:36:32.908Z,102021.16
2023-04-07T21:39:00.940Z,102020.59
2023-04-07T21:41:29.260Z,102022.41
2023-04-07T21:43:58.758Z,102029.13
2023-04-07T21:46:26.920Z,102026.84
2023-04-07T21:48:55.389Z,102025.28
2023-04-07T21:51:23.497Z,102026.44
2023-04-07T21:53:51.535Z,102033.34
2023-04-07T21:56:19.643Z,102026.63
2023-04-07T21:58:48.036Z,102027.63
2023-04-07T22:01:18.895Z,102028.66
2023-04-07T22:03:47.085Z,102034.03
2023-04-07T22:06:15.552Z,102033.22
2023-04-07T22:08:51.626Z,102041.22
2023-04-07T22:11:26.279Z,102044.09
2023-04-07T22:13:54.398Z,102044.22
2023-04-07T22:16:23.965Z,102033.13
2023-04-07T22:18:52.203Z,102042.84
2023-04-07T22:21:20.443Z,102045.47
2023-04-07T22:23:49.850Z,102046.63
2023-04-07T22:26:18.778Z,102051.94
2023-04-07T22:28:46.924Z,102051.03
2023-04-07T22:31:15.049Z,102057.31
2023-04-07T22:33:44.613Z,102057.50
2023-04-07T22:36:12.625Z,102056.03
2023-04-07T22:38:40.710Z,102058.56
2023-04-07T22:41:08.870Z,102055.16
2023-04-07T22:43:36.900Z,102063.00
2023-04-07T22:46:07.360Z,102055.28
2023-04-07T22:48:37.910Z,102063.22
2023-04-07T22:51:07.648Z,102064.88
2023-04-07T22:53:35.796Z,102067.78
2023-04-07T22:56:04.030Z,102071.34
2023-04-07T22:58:34.572Z,102070.66
2023-04-07T23:01:02.743Z,102072.41
2023-04-07T23:03:33.441Z,102068.88
2023-04-07T23:06:01.727Z,102073.44
2023-04-07T23:08:32.261Z,102080.59
2023-04-07T23:11:00.399Z,102076.25
2023-04-07T23:13:31.722Z,102076.34
2023-04-07T23:15:59.819Z,102076.38
2023-04-07T23:18:27.882Z,102076.59
2023-04-07T23:20:56.037Z,102082.69
2023-04-07T23:23:27.171Z,102079.25
2023-04-07T23:25:56.722Z,102083.75
2023-04-07T23:28:24.835Z,102088.25
2023-04-07T23:30:52.953Z,102081.25
2023-04-07T23:33:21.240Z,102077.72
2023-04-07T23:35:49.355Z,102080.47
2023-04-07T23:38:17.475Z,102080.72
2023-04-07T23:40:45.626Z,102079.94
2023-04-07T23:43:15.082Z,102082.78
2023-04-07T23:45:43.275Z,102082.66
2023-04-07T23:48:11.406Z,102079.47
2023-04-07T23:50:43.094Z,102090.06
2023-04-07T23:53:11.156Z,102086.66
2023-04-07T23:55:39.193Z,102095.38
2023-04-07T23:58:07.267Z,102093.66
